This is the latest recevied weather packets stored in our database for station/object SQ9IWE-13. If no packets are shown the sender has not sent any weather packets the latest 10 day(s).
| Time | Temp. | Humidity | Pressure | Rain* | Wind** | Luminosity | Snow |
|---|---|---|---|---|---|---|---|
| 1777964401 | 23.33° C | 36% | 1010.2 hPa | - | - | - | - |
| 1777963801 | 22.22° C | 38% | 1010.2 hPa | - | - | - | - |
| 1777963201 | 21.67° C | 39% | 1010.3 hPa | - | - | - | - |
| 1777962600 | 22.22° C | 39% | 1010.4 hPa | - | - | - | - |
| 1777962001 | 21.67° C | 41% | 1010.5 hPa | - | - | - | - |
| 1777961400 | 19.44° C | 43% | 1010.5 hPa | - | - | - | - |
| 1777960801 | 20° C | 42% | 1010.5 hPa | - | - | - | - |
| 1777960200 | 20.56° C | 41% | 1010.6 hPa | - | - | - | - |
| 1777959601 | 20.56° C | 41% | 1010.6 hPa | - | - | - | - |
| 1777959001 | 20° C | 40% | 1010.7 hPa | - | - | - | - |
| 1777958401 | 19.44° C | 42% | 1010.8 hPa | - | - | - | - |
| 1777957801 | 20° C | 41% | 1010.8 hPa | - | - | - | - |
| 1777957201 | 18.89° C | 43% | 1010.8 hPa | - | - | - | - |
| 1777956601 | 17.78° C | 44% | 1010.8 hPa | - | - | - | - |
| 1777956001 | 16.11° C | 48% | 1010.7 hPa | - | - | - | - |
| 1777955401 | 16.11° C | 48% | 1010.8 hPa | - | - | - | - |
| 1777954801 | 14.44° C | 51% | 1010.8 hPa | - | - | - | - |
| 1777954201 | 13.89° C | 54% | 1010.8 hPa | - | - | - | - |
| 1777953601 | 11.67° C | 59% | 1010.9 hPa | - | - | - | - |
| 1777953001 | 11.11° C | 60% | 1011 hPa | - | - | - | - |
| 1777952401 | 11.11° C | 61% | 1010.9 hPa | - | - | - | - |
| 1777951801 | 11.11° C | 61% | 1010.9 hPa | - | - | - | - |
| 1777951201 | 11.11° C | 60% | 1011 hPa | - | - | - | - |
| 1777950601 | 11.11° C | 60% | 1010.9 hPa | - | - | - | - |
| 1777950001 | 11.11° C | 59% | 1011 hPa | - | - | - | - |
* Rain since midnight (hover to see other rain measurements)
** Current wind speed in m/s (hover to see current wind gust speed)